createdAt,value
2023-03-22T00:00:39.959Z,85.93
2023-03-22T00:03:10.837Z,86.27
2023-03-22T00:05:42.586Z,86.09
2023-03-22T00:08:11.215Z,85.99
2023-03-22T00:10:46.596Z,86.24
2023-03-22T00:13:16.278Z,86.31
2023-03-22T00:15:48.576Z,86.38
2023-03-22T00:18:17.422Z,86.53
2023-03-22T00:20:50.123Z,86.15
2023-03-22T00:23:17.306Z,86.54
2023-03-22T00:25:45.436Z,86.72
2023-03-22T00:28:17.129Z,86.71
2023-03-22T00:30:51.252Z,87.07
2023-03-22T00:33:19.066Z,87.23
2023-03-22T00:35:52.512Z,87.44
2023-03-22T00:38:21.905Z,87.22
2023-03-22T00:40:50.865Z,87.36
2023-03-22T00:43:17.980Z,87.39
2023-03-22T00:45:44.808Z,87.51
2023-03-22T00:48:13.687Z,87.62
2023-03-22T00:50:42.979Z,87.10
2023-03-22T00:53:11.092Z,87.65
2023-03-22T00:55:37.685Z,87.50
2023-03-22T00:58:04.375Z,87.43
2023-03-22T01:00:33.632Z,87.59
2023-03-22T01:03:07.170Z,87.64
2023-03-22T01:05:35.120Z,87.56
2023-03-22T01:08:08.983Z,87.68
2023-03-22T01:10:38.061Z,87.27
2023-03-22T01:13:07.374Z,87.11
2023-03-22T01:15:34.353Z,87.23
2023-03-22T01:18:09.047Z,87.33
2023-03-22T01:20:36.842Z,87.00
2023-03-22T01:23:06.731Z,87.04
2023-03-22T01:25:33.542Z,87.10
2023-03-22T01:28:02.675Z,87.27
2023-03-22T01:30:30.103Z,86.97
2023-03-22T01:33:18.018Z,86.93
2023-03-22T01:35:51.437Z,86.96
2023-03-22T01:38:18.299Z,87.09
2023-03-22T01:40:44.782Z,87.27
2023-03-22T01:43:17.003Z,87.03
2023-03-22T01:45:48.298Z,87.39
2023-03-22T01:48:17.687Z,87.43
2023-03-22T01:50:56.376Z,87.43
2023-03-22T01:53:27.198Z,87.61
2023-03-22T01:55:59.613Z,87.86
2023-03-22T01:58:26.785Z,87.80
2023-03-22T02:00:55.364Z,87.78
2023-03-22T02:03:31.056Z,87.52
2023-03-22T02:06:00.070Z,86.93
2023-03-22T02:08:29.279Z,87.24
2023-03-22T02:10:56.022Z,87.14
2023-03-22T02:13:32.627Z,87.27
2023-03-22T02:16:09.988Z,87.15
2023-03-22T02:18:45.716Z,87.06
2023-03-22T02:21:33.047Z,87.02
2023-03-22T02:24:27.971Z,87.42
2023-03-22T02:27:19.960Z,87.32
2023-03-22T02:29:54.731Z,87.45
2023-03-22T02:32:38.890Z,87.75
2023-03-22T02:35:14.271Z,88.19
2023-03-22T02:38:06.094Z,87.81
2023-03-22T02:40:44.137Z,87.91
2023-03-22T02:43:38.978Z,88.14
2023-03-22T02:46:10.561Z,88.23
2023-03-22T02:48:47.265Z,88.09
2023-03-22T02:51:21.435Z,88.34
2023-03-22T02:54:04.376Z,88.57
2023-03-22T02:56:41.217Z,88.79
2023-03-22T02:59:12.520Z,88.78
2023-03-22T03:01:45.647Z,88.62
2023-03-22T03:04:19.562Z,88.57
2023-03-22T03:06:49.018Z,89.01
2023-03-22T03:09:19.328Z,89.36
2023-03-22T03:11:49.389Z,89.32
2023-03-22T03:14:28.070Z,89.59
2023-03-22T03:17:06.237Z,89.82
2023-03-22T03:19:48.710Z,90.16
2023-03-22T03:22:27.397Z,90.30
2023-03-22T03:25:06.846Z,90.29
2023-03-22T03:27:44.250Z,90.44
2023-03-22T03:30:22.575Z,90.54
2023-03-22T03:33:01.638Z,90.95
2023-03-22T03:35:37.712Z,90.91
2023-03-22T03:38:10.800Z,91.17
2023-03-22T03:40:46.010Z,91.18
2023-03-22T03:43:15.001Z,91.58
2023-03-22T03:45:52.150Z,91.42
2023-03-22T03:48:31.882Z,91.33
2023-03-22T03:51:01.163Z,91.55
2023-03-22T03:53:29.293Z,91.80
2023-03-22T03:55:59.006Z,91.60
2023-03-22T03:58:25.692Z,92.04
2023-03-22T04:00:52.497Z,91.94
2023-03-22T04:03:20.459Z,91.89
2023-03-22T04:05:47.227Z,92.15
2023-03-22T04:08:14.084Z,91.96
2023-03-22T04:10:42.037Z,92.26
2023-03-22T04:13:09.004Z,92.24
2023-03-22T04:15:39.108Z,92.58
2023-03-22T04:18:07.121Z,92.52
2023-03-22T04:20:34.765Z,92.20
2023-03-22T04:23:03.986Z,92.33
2023-03-22T04:25:31.709Z,92.58
2023-03-22T04:28:00.714Z,92.25
2023-03-22T04:30:27.581Z,92.40
2023-03-22T04:32:54.951Z,92.33
2023-03-22T04:35:21.702Z,92.52
2023-03-22T04:37:51.225Z,92.17
2023-03-22T04:40:17.966Z,92.39
2023-03-22T04:42:44.835Z,92.10
2023-03-22T04:45:12.846Z,92.19
2023-03-22T04:47:40.357Z,92.03
2023-03-22T04:50:13.013Z,91.88
2023-03-22T04:52:41.679Z,92.09
2023-03-22T04:55:08.827Z,91.51
2023-03-22T04:57:36.732Z,91.87
2023-03-22T05:00:08.385Z,92.09
2023-03-22T05:02:40.005Z,91.97
2023-03-22T05:05:07.844Z,91.92
2023-03-22T05:07:37.381Z,91.99
2023-03-22T05:10:04.440Z,91.94
2023-03-22T05:12:31.258Z,91.79
2023-03-22T05:15:00.943Z,91.53
2023-03-22T05:17:30.505Z,91.54
2023-03-22T05:19:57.117Z,91.67
2023-03-22T05:22:23.763Z,91.59
2023-03-22T05:24:50.342Z,91.21
2023-03-22T05:27:17.175Z,91.58
2023-03-22T05:29:45.180Z,91.18
2023-03-22T05:32:12.173Z,91.61
2023-03-22T05:34:38.972Z,91.38
2023-03-22T05:37:05.694Z,91.05
2023-03-22T05:39:33.476Z,91.02
2023-03-22T05:42:01.701Z,90.91
2023-03-22T05:44:29.624Z,91.09
2023-03-22T05:46:56.274Z,91.08
2023-03-22T05:49:23.946Z,91.27
2023-03-22T05:51:58.650Z,90.94
2023-03-22T05:54:25.357Z,91.08
2023-03-22T05:56:53.127Z,91.14
2023-03-22T05:59:21.727Z,91.06
2023-03-22T06:01:48.394Z,90.93
2023-03-22T06:04:16.187Z,90.91
2023-03-22T06:06:43.069Z,90.76
2023-03-22T06:09:16.760Z,90.93
2023-03-22T06:11:43.835Z,91.01
2023-03-22T06:14:10.811Z,90.64
2023-03-22T06:16:37.577Z,90.39
2023-03-22T06:19:04.384Z,90.92
2023-03-22T06:21:31.053Z,90.73
2023-03-22T06:23:58.840Z,90.21
2023-03-22T06:26:31.780Z,90.16
2023-03-22T06:29:00.071Z,89.90
2023-03-22T06:31:26.808Z,90.00
2023-03-22T06:33:56.114Z,90.44
2023-03-22T06:36:22.810Z,89.96
2023-03-22T06:38:51.190Z,89.87
2023-03-22T06:41:20.014Z,89.90
2023-03-22T06:43:50.028Z,89.23
2023-03-22T06:46:17.223Z,89.06
2023-03-22T06:48:45.268Z,89.14
2023-03-22T06:51:13.905Z,89.02
2023-03-22T06:53:40.684Z,88.88
2023-03-22T06:56:09.978Z,89.15
2023-03-22T06:58:37.366Z,89.16
2023-03-22T07:01:04.166Z,88.60
2023-03-22T07:03:39.418Z,88.27
2023-03-22T07:06:13.034Z,88.24
2023-03-22T07:08:40.286Z,87.54
2023-03-22T07:11:07.416Z,87.56
2023-03-22T07:13:34.178Z,87.39
2023-03-22T07:16:02.567Z,87.18
2023-03-22T07:18:30.516Z,87.56
2023-03-22T07:20:57.287Z,87.35
2023-03-22T07:23:24.213Z,87.08
2023-03-22T07:25:52.087Z,86.94
2023-03-22T07:28:22.547Z,86.66
2023-03-22T07:30:49.225Z,86.62
2023-03-22T07:35:57.792Z,86.27
2023-03-22T07:38:24.413Z,86.25
2023-03-22T07:40:54.724Z,86.12
2023-03-22T07:43:22.651Z,85.84
2023-03-22T07:45:50.854Z,85.73
2023-03-22T07:48:20.653Z,85.24
2023-03-22T07:50:48.164Z,85.10
2023-03-22T07:53:14.804Z,85.13
2023-03-22T07:55:44.393Z,84.83
2023-03-22T07:58:12.117Z,84.69
2023-03-22T08:00:38.978Z,84.97
2023-03-22T08:03:06.007Z,84.80
2023-03-22T08:05:32.886Z,84.77
2023-03-22T08:08:01.493Z,84.91
2023-03-22T08:10:28.222Z,84.55
2023-03-22T08:12:54.958Z,84.09
2023-03-22T08:15:22.711Z,83.66
2023-03-22T08:17:49.918Z,84.20
2023-03-22T08:20:18.448Z,83.69
2023-03-22T08:22:45.655Z,83.13
2023-03-22T08:25:12.510Z,83.25
2023-03-22T08:27:39.145Z,82.82
2023-03-22T08:30:06.359Z,82.99
2023-03-22T08:32:34.449Z,82.63
2023-03-22T08:35:01.028Z,83.05
2023-03-22T08:37:27.879Z,82.96
2023-03-22T08:39:54.421Z,83.20
2023-03-22T08:42:22.420Z,83.06
2023-03-22T08:44:58.010Z,82.34
2023-03-22T08:47:24.635Z,81.91
2023-03-22T08:49:58.412Z,82.09
2023-03-22T08:52:26.805Z,82.49
2023-03-22T08:54:53.516Z,81.47
2023-03-22T08:57:22.062Z,81.07
2023-03-22T08:59:48.822Z,81.73
2023-03-22T09:02:15.696Z,80.78
2023-03-22T09:04:43.191Z,80.96
2023-03-22T09:07:09.979Z,81.41
2023-03-22T09:09:37.036Z,81.58
2023-03-22T09:12:03.782Z,82.00
2023-03-22T09:14:30.283Z,81.27
2023-03-22T09:17:01.760Z,81.30
2023-03-22T09:19:28.925Z,80.72
2023-03-22T09:21:58.438Z,80.69
2023-03-22T09:24:26.322Z,80.26
2023-03-22T09:26:52.898Z,80.66
2023-03-22T09:29:19.784Z,81.09
2023-03-22T09:31:48.928Z,81.52
2023-03-22T09:34:15.812Z,81.64
2023-03-22T09:36:42.525Z,81.48
2023-03-22T09:39:10.142Z,82.47
2023-03-22T09:41:38.676Z,83.12
2023-03-22T09:44:09.460Z,83.56
2023-03-22T09:46:40.709Z,83.74
2023-03-22T09:49:16.452Z,83.69
2023-03-22T09:51:47.613Z,83.85
2023-03-22T09:54:22.322Z,84.79
2023-03-22T09:56:58.324Z,85.68
2023-03-22T09:59:28.067Z,86.31
2023-03-22T10:02:21.869Z,86.34
2023-03-22T10:05:03.339Z,86.50
2023-03-22T10:07:41.775Z,86.92
2023-03-22T10:10:20.477Z,87.38
2023-03-22T10:13:13.913Z,87.86
2023-03-22T10:15:53.619Z,87.76
2023-03-22T10:18:24.964Z,87.54
2023-03-22T10:21:01.447Z,88.04
2023-03-22T10:23:40.890Z,88.11
2023-03-22T10:26:25.549Z,88.63
2023-03-22T10:29:01.564Z,88.71
2023-03-22T10:31:31.306Z,88.99
2023-03-22T10:34:03.690Z,88.97
2023-03-22T10:36:35.137Z,89.59
2023-03-22T10:39:16.700Z,89.99
2023-03-22T10:41:46.470Z,89.35
2023-03-22T10:44:19.559Z,89.57
2023-03-22T10:46:49.192Z,89.62
2023-03-22T10:49:26.033Z,89.94
2023-03-22T10:52:05.005Z,89.74
2023-03-22T10:54:32.580Z,89.74
2023-03-22T10:56:59.198Z,90.15
2023-03-22T10:59:45.299Z,90.46
2023-03-22T11:02:19.225Z,90.14
2023-03-22T11:04:49.273Z,90.55
2023-03-22T11:07:28.962Z,90.42
2023-03-22T11:10:11.234Z,90.13
2023-03-22T11:12:42.289Z,90.43
2023-03-22T11:15:28.726Z,90.23
2023-03-22T11:18:06.251Z,90.41
2023-03-22T11:20:34.933Z,89.86
2023-03-22T11:23:05.240Z,90.22
2023-03-22T11:25:35.761Z,89.72
2023-03-22T11:28:05.429Z,89.60
2023-03-22T11:30:35.622Z,89.96
2023-03-22T11:33:17.666Z,90.04
2023-03-22T11:35:47.548Z,90.15
2023-03-22T11:38:34.021Z,89.75
2023-03-22T11:41:03.281Z,89.21
2023-03-22T11:43:43.889Z,89.29
2023-03-22T11:46:12.681Z,88.80
2023-03-22T11:48:42.407Z,88.75
2023-03-22T11:51:18.977Z,88.73
2023-03-22T11:53:48.024Z,88.08
2023-03-22T11:56:22.075Z,88.51
2023-03-22T11:58:59.695Z,88.16
2023-03-22T12:01:37.358Z,88.05
2023-03-22T12:04:14.103Z,88.28
2023-03-22T12:06:47.745Z,88.62
2023-03-22T12:09:41.370Z,88.37
2023-03-22T12:12:17.866Z,88.36
2023-03-22T12:14:54.932Z,88.35
2023-03-22T12:17:28.644Z,87.77
2023-03-22T12:22:59.617Z,87.77
2023-03-22T12:25:32.242Z,87.72
2023-03-22T12:28:06.857Z,88.02
2023-03-22T12:30:44.770Z,87.87
2023-03-22T12:33:27.756Z,87.28
2023-03-22T12:35:59.036Z,87.12
2023-03-22T12:38:30.453Z,87.08
2023-03-22T12:46:45.284Z,87.14
2023-03-22T12:49:25.674Z,87.41
2023-03-22T12:51:56.419Z,87.45
2023-03-22T12:54:25.818Z,87.35
2023-03-22T12:56:55.500Z,87.27
2023-03-22T12:59:26.830Z,87.54
2023-03-22T13:01:57.940Z,87.43
2023-03-22T13:04:31.912Z,87.46
2023-03-22T13:07:16.622Z,87.38
2023-03-22T13:09:47.247Z,87.45
2023-03-22T13:12:17.034Z,87.48
2023-03-22T13:14:51.144Z,87.93
2023-03-22T13:17:27.730Z,87.74
2023-03-22T13:19:59.593Z,87.57
2023-03-22T13:22:48.150Z,87.64
2023-03-22T13:25:39.752Z,87.88
2023-03-22T13:28:25.532Z,87.93
2023-03-22T13:30:56.399Z,87.54
2023-03-22T13:33:29.791Z,88.01
2023-03-22T13:35:59.502Z,87.61
2023-03-22T13:38:30.942Z,87.57
2023-03-22T13:41:07.231Z,87.35
2023-03-22T13:43:51.525Z,87.98
2023-03-22T13:46:20.123Z,88.10
2023-03-22T13:49:17.411Z,88.15
2023-03-22T13:51:45.380Z,88.40
2023-03-22T13:54:15.480Z,88.48
2023-03-22T13:56:45.487Z,88.50
2023-03-22T13:59:31.027Z,88.56
2023-03-22T14:02:24.013Z,88.72
2023-03-22T14:05:01.473Z,89.11
2023-03-22T14:07:41.729Z,88.57
2023-03-22T14:10:35.492Z,89.03
2023-03-22T14:13:16.611Z,88.81
2023-03-22T14:15:51.455Z,88.85
2023-03-22T14:18:27.897Z,89.55
2023-03-22T14:21:01.201Z,89.35
